Pocatello, ID

4:12 PM MDT on August 30, 2014 (GMT -0600)
ITD Pocatello (Monte Vista) ID US | Change Station
CLOSE
Current Station
Personal Weather Station
Location: Pocatello, ID
Elevation: 4604 ft
Nearby Weather Stations
Active Advisory: Lake Wind Advisory

Elev 4604 ft 42.89 °N, 112.43 °W | Updated 57 minutes ago

Partly Cloudy
Partly Cloudy
74 °F
Feels Like 77 °F
N
3
Wind Variable Wind from SW
Gusts 6.0 mph

Today
High -- | Low -- °F
--% Chance of Precip.
Yesterday
High -- | Low -- °F
Precip. -- in
6:52 AM 8:07 PM
Waxing Crescent, 25% visible
Pressure 29.80 in
Visibility 10.0 miles
Clouds Few 11000 ft
Heat Index 77 °F
Dew Point 48 °F
Humidity 40%
Rainfall 0.00 in
Snow Depth 0 in
UV 6 out of 12
Pollen 8.90 out of 12
PM2.5 Good
Flu Activity Not available.
METAR KPIH 302153Z 24013G24KT 10SM FEW110 24/05 A2992 RMK AO2 SLP091 T02390050

More Conditions Fewer Conditions

Pressure 29.80 in
Visibility 10.0 miles
Clouds Few 11000 ft
Heat Index 77 °F
Dew Point 48 °F
Humidity 40%
Rainfall 0.00 in
Snow Depth 0 in
UV 6 out of 12
Pollen 8.90 out of 12
PM2.5 Good
Flu Activity Not available.
METAR KPIH 302153Z 24013G24KT 10SM FEW110 24/05 A2992 RMK AO2 SLP091 T02390050

More Conditions Fewer Conditions

10-Day Weather Forecast

Almanac

Astronomy

Aug. 30, 2014 Rise Set
Actual Time 6:52 AM MDT 8:07 PM MDT
Civil Twilight 6:22 AM MDT 8:36 PM MDT
Nautical Twilight 5:47 AM MDT 9:11 PM MDT
Astronomical Twilight 5:10 AM MDT 9:48 PM MDT
Moon 11:51 AM MDT 10:35 PM MDT
Length of Visible Light 14h 13m
Length of Day
13h 15m
Tomorrow will be 2m 47s shorter.
Waxing Crescent, 25% of the Moon is Illuminated
Today
Waxing Crescent
Sep 2
First Quarter
Sep 8
Full
Sep 15
Last Quarter
Sep 24
New

Today's Extremes

State Highs State Lows

Community

WunderPhotos

Upload Photos

1,748,657 photos uploaded!

WunderBlogs® & News

Nearby

Air Quality

  Air Quality AQ Index Pollutant
Yesterday Good
PM10
Current Good
PM2.5
Saturday Good
PM2.5
Sunday Good
PM2.5
Monday Good
PM2.5
Tuesday Good
PM2.5

Snow Depth

Station Depth Elevation
Wildhorse Divide 0 in 6490 ft
Sheep Mountain 0 in 6570 ft
Somsen Ranch 0 in 6800 ft
Franklin Basin 1 in 8170 ft
Swede Peak 0 in 7640 ft

Earthquake Activity

City Distance Mag. Time & Date
No recent earthquake activity has been reported nearby.
Minimum magnitude displayed is 2.5.

Coastal Water Temperatures

Place Temperature
No Stations Reporting

Nearby Weather Stations